DGW weather

Converse County Airport
Douglas, Wyoming, United States

Public forecast

Using degrees Fahrenheit for public forecast. Weather courtesy of forecast.io.

METAR (pilot weather report)

Retrieved 2019/09/23 05:53 UTC (1 hour ago):

KDGW 230553Z AUTO 00000KT 10SM CLR 07/01 A3009 RMK AO2 SLP159 T00720006 10206 20061 50006

TAF (pilot weather forecast)

Closest forecast is Casper-Natrona County International Airport, 47.9 nm (88.7 km) W. Retrieved 2019/09/23 06:24 UTC (32 minutes ago):

TAF KCPR 230522Z 2306/2406 22007KT P6SM SKC FM231500 24014G20KT P6SM FEW100 SCT200 FM240100 24006KT P6SM FEW200